Time;durP1;ratioP1;P1;durP2;ratioP2;P2;SDS_P1;SDS_P2;PMS_P1;PMS_P2;Temp;Humidity;BMP_temperature;BMP_pressure;BME280_temperature;BME280_humidity;BME280_pressure;Samples;Min_cycle;Max_cycle;Signal;HPM_P1;HPM_P2
2022/05/01 00:02:11;;;;;;;38.08;21.02;;;;;;;7.62;88.70;97864.59;5046881;28;20072;-67
2022/05/01 00:04:38;;;;;;;34.78;20.42;;;;;;;7.65;88.50;97872.25;5044426;28;20072;-67
2022/05/01 00:07:04;;;;;;;36.97;20.08;;;;;;;7.62;88.56;97866.44;5025613;28;20055;-67
2022/05/01 00:09:31;;;;;;;40.25;21.08;;;;;;;7.50;88.71;97863.66;5030664;28;20033;-67
2022/05/01 00:11:59;;;;;;;37.15;20.33;;;;;;;7.55;88.87;97866.50;5045170;28;20033;-67
2022/05/01 00:14:25;;;;;;;37.92;21.08;;;;;;;7.66;87.42;97863.09;5045899;28;20055;-67
2022/05/01 00:16:52;;;;;;;42.15;20.25;;;;;;;7.52;88.21;97859.69;5045807;28;20551;-67
2022/05/01 00:19:19;;;;;;;34.05;20.20;;;;;;;7.44;88.33;97859.16;5044658;28;20056;-66
2022/05/01 00:22:05;;;;;;;33.10;19.10;;;;;;;7.55;88.21;97863.81;5045176;28;20042;-66
2022/05/01 00:24:32;;;;;;;37.20;20.92;;;;;;;7.49;88.93;97859.31;5052368;28;20040;-66
2022/05/01 00:27:00;;;;;;;37.67;22.10;;;;;;;7.49;88.98;97854.72;5040054;28;20040;-66
2022/05/01 00:29:27;;;;;;;37.15;20.75;;;;;;;7.39;89.07;97855.25;5044959;28;20048;-66
2022/05/01 00:31:53;;;;;;;37.83;21.02;;;;;;;7.36;89.54;97852.97;5045423;28;20056;-66
2022/05/01 00:37:06;;;;;;;40.20;21.23;;;;;;;7.36;89.58;97844.91;5044635;28;20041;-66
2022/05/01 00:39:32;;;;;;;34.92;21.13;;;;;;;7.48;89.32;97855.78;5045349;28;20044;-67
2022/05/01 00:41:59;;;;;;;43.92;20.75;;;;;;;7.51;89.20;97849.13;5044648;28;20033;-67
2022/05/01 00:44:26;;;;;;;38.03;20.92;;;;;;;7.60;89.28;97855.06;5045898;28;20052;-67
2022/05/01 00:46:53;;;;;;;35.05;20.38;;;;;;;7.62;88.37;97847.59;5044809;28;20052;-67
2022/05/01 00:49:22;;;;;;;32.67;19.75;;;;;;;7.70;87.64;97854.59;5044616;28;20045;-67
2022/05/01 00:52:00;;;;;;;35.92;22.98;;;;;;;7.58;88.46;97849.91;5044948;28;20448;-67
2022/05/01 00:54:28;;;;;;;41.25;22.02;;;;;;;7.52;87.78;97853.50;5046152;28;20505;-66
2022/05/01 00:56:59;;;;;;;36.47;20.08;;;;;;;7.53;88.34;97850.56;5045249;28;20047;-66
2022/05/01 00:59:27;;;;;;;39.07;21.30;;;;;;;7.46;88.60;97849.81;5044889;28;20041;-66
2022/05/01 01:01:55;;;;;;;48.17;23.25;;;;;;;7.46;88.62;97849.81;5045217;28;20465;-66
2022/05/01 01:04:22;;;;;;;41.63;21.40;;;;;;;7.46;89.04;97848.97;5044613;28;20041;-66
2022/05/01 01:06:49;;;;;;;40.97;21.38;;;;;;;7.34;89.18;97841.59;5044484;28;20041;-67
2022/05/01 01:09:16;;;;;;;46.42;23.65;;;;;;;7.26;89.68;97848.06;5044914;28;20037;-67
2022/05/01 01:11:44;;;;;;;40.85;22.58;;;;;;;7.25;90.10;97842.91;5044395;28;20037;-66
2022/05/01 01:14:11;;;;;;;45.85;21.45;;;;;;;7.42;89.10;97837.81;5046285;28;20037;-66
2022/05/01 01:16:39;;;;;;;42.63;21.88;;;;;;;7.41;88.82;97834.28;5040925;28;20516;-66
2022/05/01 01:19:07;;;;;;;47.80;24.85;;;;;;;7.23;89.78;97826.97;5043316;28;20041;-67
2022/05/01 01:21:37;;;;;;;46.08;23.23;;;;;;;7.31;89.66;97828.56;5043047;28;20040;-67
2022/05/01 01:24:09;;;;;;;42.17;23.05;;;;;;;7.36;89.45;97826.03;5044685;28;20041;-66
2022/05/01 01:26:36;;;;;;;47.88;24.67;;;;;;;7.37;89.58;97834.97;5042252;28;20523;-66
2022/05/01 01:31:54;;;;;;;47.38;24.05;;;;;;;7.29;90.36;97825.25;5028874;28;20056;-66
2022/05/01 01:34:28;;;;;;;44.75;22.65;;;;;;;7.28;90.29;97831.69;5044044;28;20451;-67
2022/05/01 01:36:55;;;;;;;43.03;24.60;;;;;;;7.16;90.76;97828.91;5044317;28;20053;-67
2022/05/01 01:39:23;;;;;;;48.22;23.58;;;;;;;7.28;90.42;97829.00;5029076;28;20056;-67
2022/05/01 01:41:52;;;;;;;45.47;24.27;;;;;;;7.18;91.13;97829.50;5042867;28;20047;-66
2022/05/01 01:44:20;;;;;;;46.03;24.20;;;;;;;7.31;89.96;97825.06;5044054;28;20049;-66
2022/05/01 01:46:47;;;;;;;43.08;23.45;;;;;;;7.25;91.29;97827.59;5042941;28;20061;-67
2022/05/01 01:49:14;;;;;;;44.50;22.55;;;;;;;7.23;90.90;97828.84;5050754;28;20070;-67
2022/05/01 01:51:40;;;;;;;48.30;24.25;;;;;;;7.40;90.75;97829.13;5044078;28;20037;-67
2022/05/01 01:54:07;;;;;;;42.60;22.58;;;;;;;7.53;89.98;97829.00;5044203;28;20044;-67
2022/05/01 01:56:37;;;;;;;42.58;23.80;;;;;;;7.68;88.64;97819.75;5023174;28;20139;-67
2022/05/01 01:59:04;;;;;;;47.05;22.95;;;;;;;7.64;88.39;97818.56;5043154;28;20048;-66
2022/05/01 02:01:30;;;;;;;46.13;23.88;;;;;;;7.62;88.98;97817.94;5043226;28;20051;-67
2022/05/01 02:03:57;;;;;;;46.35;23.25;;;;;;;7.66;88.83;97822.69;5035800;28;20064;-67
2022/05/01 02:06:24;;;;;;;46.13;24.83;;;;;;;7.60;89.30;97818.19;5043230;28;20671;-67
2022/05/01 02:08:50;;;;;;;43.30;22.95;;;;;;;7.45;88.73;97818.53;5044546;28;20048;-66
2022/05/01 02:11:17;;;;;;;42.95;20.95;;;;;;;7.52;88.68;97819.28;5043543;28;20037;-67
2022/05/01 02:13:44;;;;;;;34.90;19.83;;;;;;;7.57;87.89;97813.22;5044341;28;20045;-67
2022/05/01 02:16:10;;;;;;;41.92;21.02;;;;;;;7.52;88.63;97815.78;5041253;28;20041;-67
2022/05/01 02:18:37;;;;;;;39.58;22.63;;;;;;;7.51;88.50;97814.09;5042864;28;20389;-67
2022/05/01 02:21:37;;;;;;;47.95;21.35;;;;;;;7.54;89.68;97810.97;5043240;28;20044;-67
2022/05/01 02:23:57;;;;;;;43.00;22.15;;;;;;;7.52;88.49;97813.06;5047084;28;20083;-67
2022/05/01 02:26:23;;;;;;;43.63;23.25;;;;;;;7.53;89.69;97810.13;5064108;28;20488;-67
2022/05/01 02:28:50;;;;;;;43.03;24.73;;;;;;;7.35;89.87;97810.94;5044959;28;20415;-67
2022/05/01 02:31:17;;;;;;;46.45;22.83;;;;;;;7.35;90.13;97812.78;5042532;28;20041;-67
2022/05/01 02:33:44;;;;;;;38.03;22.38;;;;;;;7.44;91.33;97811.47;5043974;28;20041;-67
2022/05/01 02:36:12;;;;;;;43.13;21.85;;;;;;;7.52;89.24;97813.88;5041383;28;20863;-67
2022/05/01 02:38:39;;;;;;;41.97;21.90;;;;;;;7.50;89.10;97813.28;5046553;28;20079;-67
2022/05/01 02:41:05;;;;;;;40.97;21.85;;;;;;;7.58;88.65;97816.72;5043054;28;20041;-67
2022/05/01 02:43:32;;;;;;;44.58;22.27;;;;;;;7.61;88.24;97811.75;5044525;28;20091;-67
2022/05/01 02:45:58;;;;;;;39.10;22.50;;;;;;;7.52;88.72;97816.56;5047236;28;20045;-67
2022/05/01 02:48:25;;;;;;;41.88;21.98;;;;;;;7.41;89.48;97814.63;5045777;28;20560;-67
2022/05/01 02:50:52;;;;;;;41.03;22.15;;;;;;;7.32;91.23;97803.28;5048453;28;20722;-66
2022/05/01 02:53:18;;;;;;;38.40;21.65;;;;;;;7.28;89.67;97800.22;5046838;28;20044;-67
2022/05/01 02:55:46;;;;;;;44.70;21.38;;;;;;;7.31;89.65;97790.88;5027389;28;20053;-66
2022/05/01 02:58:12;;;;;;;37.63;21.42;;;;;;;7.25;90.13;97789.03;5027286;28;20050;-66
2022/05/01 03:00:40;;;;;;;40.00;21.73;;;;;;;7.23;89.46;97786.56;5047035;28;20033;-67
2022/05/01 03:03:08;;;;;;;38.30;20.48;;;;;;;7.14;89.81;97787.88;5047223;28;20087;-66
2022/05/01 03:05:34;;;;;;;38.60;21.45;;;;;;;7.04;90.69;97782.97;5046505;28;20045;-67
2022/05/01 03:08:01;;;;;;;40.22;22.10;;;;;;;6.99;91.03;97788.19;5046196;28;20056;-66
2022/05/01 03:10:26;;;;;;;45.13;22.65;;;;;;;6.93;91.57;97791.78;5046458;28;20056;-67
2022/05/01 03:12:53;;;;;;;44.45;23.30;;;;;;;6.98;91.10;97789.25;5046160;28;20049;-67
2022/05/01 03:15:20;;;;;;;43.03;22.08;;;;;;;7.06;91.41;97788.16;5046250;28;20041;-66
2022/05/01 03:23:17;;;;;;;41.53;22.30;;;;;;;6.94;91.49;97788.88;5046800;28;20049;-66
2022/05/01 03:25:43;;;;;;;39.53;21.25;;;;;;;7.06;91.27;97786.28;5065189;28;20102;-67
2022/05/01 03:28:10;;;;;;;44.47;22.48;;;;;;;7.01;91.24;97784.25;5050921;28;20041;-66
2022/05/01 03:30:37;;;;;;;44.97;22.70;;;;;;;7.01;90.82;97781.56;5045013;28;20429;-67
2022/05/01 03:33:05;;;;;;;41.10;21.77;;;;;;;6.95;91.70;97787.81;5046489;28;20041;-67
2022/05/01 03:35:36;;;;;;;44.25;23.33;;;;;;;6.96;91.67;97786.78;5046597;28;20440;-67
2022/05/01 03:38:04;;;;;;;40.08;21.13;;;;;;;6.96;92.01;97785.97;5044492;28;20045;-66
2022/05/01 03:40:31;;;;;;;41.05;21.23;;;;;;;7.04;91.21;97780.28;5045165;28;20041;-67
2022/05/01 03:42:57;;;;;;;40.78;21.90;;;;;;;7.05;91.84;97778.44;5045513;28;20061;-67
2022/05/01 03:45:24;;;;;;;40.33;21.95;;;;;;;7.03;91.07;97779.47;5046714;28;20064;-67
2022/05/01 03:47:51;;;;;;;43.85;22.52;;;;;;;6.98;91.06;97776.63;5045367;28;20081;-67
2022/05/01 03:50:17;;;;;;;37.80;20.25;;;;;;;6.96;90.72;97786.78;5046245;28;20052;-66
2022/05/01 03:52:44;;;;;;;36.08;19.55;;;;;;;7.04;90.07;97780.28;5045590;28;20052;-66
2022/05/01 03:55:11;;;;;;;37.17;20.55;;;;;;;6.99;89.94;97780.97;5042564;28;20045;-67
2022/05/01 03:57:39;;;;;;;44.13;21.80;;;;;;;6.98;90.96;97782.00;5042674;28;20044;-66
2022/05/01 04:00:10;;;;;;;34.42;19.67;;;;;;;6.98;90.16;97771.25;5046668;28;20052;-67
2022/05/01 04:02:42;;;;;;;35.75;19.98;;;;;;;6.97;90.25;97779.53;5045444;28;20408;-67
2022/05/01 04:05:10;;;;;;;32.13;19.30;;;;;;;6.95;90.77;97777.06;5043995;28;20417;-66
2022/05/01 04:07:37;;;;;;;34.97;19.08;;;;;;;7.00;90.41;97785.28;5044803;28;20419;-66
2022/05/01 04:10:05;;;;;;;35.72;19.27;;;;;;;7.00;90.27;97788.00;5043988;28;20661;-67
2022/05/01 04:12:40;;;;;;;37.67;20.90;;;;;;;7.10;91.12;97792.88;5044104;28;20068;-67
2022/05/01 04:15:09;;;;;;;33.45;18.23;;;;;;;7.18;89.95;97790.97;5047454;28;20047;-66
2022/05/01 04:17:38;;;;;;;37.50;20.25;;;;;;;7.13;90.23;97799.69;5045558;28;20124;-67
2022/05/01 04:20:08;;;;;;;40.03;20.48;;;;;;;7.20;90.51;97797.78;5047680;28;20120;-66
2022/05/01 04:22:36;;;;;;;33.25;18.80;;;;;;;7.33;89.29;97790.66;5047449;28;20034;-67
2022/05/01 04:25:14;;;;;;;32.78;18.30;;;;;;;7.48;89.42;97788.41;5053977;28;20119;-66
2022/05/01 04:27:42;;;;;;;34.25;18.80;;;;;;;7.60;88.58;97785.00;5026900;28;20051;-66
2022/05/01 04:30:12;;;;;;;32.25;18.83;;;;;;;7.66;88.15;97784.09;5055288;28;20053;-66
2022/05/01 04:32:48;;;;;;;34.05;20.75;;;;;;;7.36;88.58;97795.56;5045225;28;20057;-66
2022/05/01 04:35:21;;;;;;;33.95;19.75;;;;;;;7.33;89.37;97796.03;5041608;28;20045;-66
2022/05/01 04:37:48;;;;;;;39.58;19.25;;;;;;;7.36;90.84;97798.28;5034787;28;20055;-66
2022/05/01 04:40:17;;;;;;;36.65;20.10;;;;;;;7.41;90.30;97796.56;5036180;28;20079;-66
2022/05/01 04:42:44;;;;;;;35.70;20.40;;;;;;;7.44;88.24;97797.19;5036929;28;20045;-66
2022/05/01 04:45:11;;;;;;;34.75;20.13;;;;;;;7.35;88.89;97799.31;5035626;28;20042;-66
2022/05/01 04:47:38;;;;;;;37.15;20.27;;;;;;;7.35;89.40;97805.53;5036097;28;20048;-66
2022/05/01 04:50:06;;;;;;;40.08;21.35;;;;;;;7.28;89.31;97800.22;5042604;28;20045;-66
2022/05/01 04:52:36;;;;;;;33.40;18.75;;;;;;;7.48;88.96;97803.78;5047199;28;20048;-66
2022/05/01 04:55:03;;;;;;;36.42;19.75;;;;;;;7.41;89.02;97803.84;5044004;28;20500;-66
2022/05/01 04:57:31;;;;;;;32.42;18.65;;;;;;;7.44;89.48;97816.84;5040812;28;20048;-66
2022/05/01 04:59:58;;;;;;;34.85;19.98;;;;;;;7.60;89.17;97806.56;5044564;28;20037;-66
2022/05/01 05:02:36;;;;;;;40.92;20.40;;;;;;;7.49;88.51;97810.81;5040576;28;20072;-66
2022/05/01 05:05:05;;;;;;;33.05;19.35;;;;;;;7.62;88.60;97815.25;5044287;28;20048;-66
2022/05/01 05:07:32;;;;;;;32.30;19.98;;;;;;;7.65;88.03;97818.34;5042502;28;20047;-66
2022/05/01 05:09:59;;;;;;;33.33;18.95;;;;;;;7.60;87.93;97818.19;5033841;28;20534;-66
2022/05/01 05:12:26;;;;;;;36.17;19.48;;;;;;;7.71;87.67;97823.88;5038263;28;20657;-66
2022/05/01 05:14:55;;;;;;;34.20;20.95;;;;;;;7.75;87.94;97825.09;5040468;28;20045;-66
2022/05/01 05:17:22;;;;;;;34.08;19.42;;;;;;;7.53;89.19;97823.59;5041833;28;20049;-66
2022/05/01 05:19:49;;;;;;;32.00;18.80;;;;;;;7.65;89.42;97815.63;5044213;28;20044;-66
2022/05/01 05:22:16;;;;;;;33.10;18.70;;;;;;;7.67;88.46;97828.91;5043513;28;20094;-66
2022/05/01 05:24:42;;;;;;;32.03;19.10;;;;;;;7.65;87.62;97834.50;5055449;28;20048;-67
2022/05/01 05:27:09;;;;;;;34.15;21.10;;;;;;;7.64;88.28;97840.94;5045437;28;20060;-65
2022/05/01 05:29:36;;;;;;;35.10;18.38;;;;;;;7.88;88.14;97841.13;5046896;28;20686;-66
2022/05/01 05:32:03;;;;;;;39.92;20.50;;;;;;;7.68;87.71;97835.94;5037591;28;20041;-66
2022/05/01 05:34:29;;;;;;;29.73;18.40;;;;;;;7.86;87.10;97834.31;5048325;28;20047;-66
2022/05/01 05:36:57;;;;;;;31.63;19.00;;;;;;;8.02;86.92;97832.88;5042274;28;20044;-67
2022/05/01 05:39:23;;;;;;;31.02;18.60;;;;;;;8.13;85.48;97829.47;5039991;28;20037;-66
2022/05/01 05:41:50;;;;;;;27.40;17.30;;;;;;;8.23;85.31;97833.50;5041503;28;20037;-66
2022/05/01 05:44:17;;;;;;;31.02;18.17;;;;;;;8.33;83.85;97829.22;5040385;28;20054;-66
2022/05/01 05:46:43;;;;;;;33.70;18.48;;;;;;;8.44;83.93;97832.22;5044478;28;20045;-66
2022/05/01 05:49:10;;;;;;;32.75;18.27;;;;;;;8.59;84.79;97831.88;5044358;28;20500;-66
2022/05/01 05:51:36;;;;;;;32.08;18.38;;;;;;;8.23;84.81;97836.19;5047844;28;20507;-66
2022/05/01 05:54:03;;;;;;;28.85;17.35;;;;;;;8.32;84.17;97830.28;5043868;28;20048;-66
2022/05/01 05:56:30;;;;;;;31.15;18.27;;;;;;;8.47;83.18;97831.75;5043928;28;20045;-66
2022/05/01 05:58:56;;;;;;;27.02;17.50;;;;;;;8.60;82.81;97841.59;5043420;28;20170;-66
2022/05/01 06:01:23;;;;;;;31.92;18.48;;;;;;;8.42;84.16;97840.53;5041482;28;20040;-67
2022/05/01 06:03:49;;;;;;;32.35;19.00;;;;;;;8.40;83.93;97839.94;5045036;28;20053;-66
2022/05/01 06:06:17;;;;;;;34.30;18.77;;;;;;;8.25;84.37;97842.22;5043664;28;20068;-66
2022/05/01 06:08:44;;;;;;;34.03;19.70;;;;;;;8.09;85.12;97832.81;5043408;28;20044;-66
2022/05/01 06:11:11;;;;;;;29.98;18.65;;;;;;;8.25;84.71;97840.31;5044352;28;20504;-66
2022/05/01 06:13:38;;;;;;;27.98;17.38;;;;;;;8.55;83.16;97842.28;5044495;28;20048;-66
2022/05/01 06:16:04;;;;;;;34.63;18.80;;;;;;;8.51;83.29;97832.16;5044118;28;20049;-66
2022/05/01 06:18:31;;;;;;;32.53;18.75;;;;;;;8.42;84.99;97828.91;5042293;28;20049;-66
2022/05/01 06:20:58;;;;;;;27.20;16.70;;;;;;;8.65;83.86;97832.81;5047412;28;20049;-66
2022/05/01 06:23:26;;;;;;;30.88;17.40;;;;;;;8.80;83.89;97832.41;5047793;28;20073;-66
2022/05/01 06:25:53;;;;;;;31.30;18.90;;;;;;;8.55;83.88;97827.97;5068795;28;20471;-66
2022/05/01 06:28:19;;;;;;;32.20;17.48;;;;;;;8.75;83.03;97841.19;5052315;28;20049;-66
2022/05/01 06:30:48;;;;;;;22.90;15.63;;;;;;;8.87;81.90;97835.00;5048489;28;20056;-66
2022/05/01 06:33:17;;;;;;;23.67;15.63;;;;;;;8.75;81.30;97838.50;5048749;28;20125;-66
2022/05/01 06:35:47;;;;;;;22.48;14.60;;;;;;;8.65;81.35;97836.34;5047977;28;20049;-65
2022/05/01 06:38:13;;;;;;;23.63;14.77;;;;;;;8.72;81.19;97838.94;5046385;28;20049;-66
2022/05/01 06:40:43;;;;;;;21.77;13.77;;;;;;;8.82;80.36;97843.81;5047227;28;20049;-66
2022/05/01 06:43:13;;;;;;;22.65;14.40;;;;;;;9.16;80.19;97836.03;5047673;28;20071;-66
2022/05/01 06:45:41;;;;;;;22.37;13.40;;;;;;;9.30;77.81;97839.38;5046860;28;20056;-66
2022/05/01 06:48:10;;;;;;;21.52;14.18;;;;;;;9.05;78.16;97842.22;5047104;28;20827;-66
2022/05/01 06:50:37;;;;;;;21.02;13.68;;;;;;;9.26;78.35;97840.06;5047558;28;20049;-66
2022/05/01 06:53:07;;;;;;;23.52;13.48;;;;;;;9.37;78.37;97828.44;5046314;28;20037;-66
2022/05/01 06:55:34;;;;;;;21.80;13.57;;;;;;;9.62;77.00;97830.13;5047786;28;20642;-67
2022/05/01 06:58:00;;;;;;;23.98;14.18;;;;;;;9.72;76.86;97829.53;5047320;28;20718;-67
2022/05/01 07:00:27;;;;;;;20.33;13.25;;;;;;;9.70;77.36;97839.75;5044703;28;20045;-66
2022/05/01 07:02:54;;;;;;;21.58;13.90;;;;;;;9.98;74.56;97841.75;5046730;28;20037;-66
2022/05/01 07:05:22;;;;;;;19.13;13.57;;;;;;;9.91;74.98;97838.34;5047954;28;20099;-69
2022/05/01 07:07:50;;;;;;;22.13;12.80;;;;;;;10.13;74.40;97845.84;5045568;28;20044;-67
2022/05/01 07:10:18;;;;;;;18.58;12.48;;;;;;;10.01;74.12;97844.00;5046270;28;20053;-66
2022/05/01 07:12:45;;;;;;;21.75;11.85;;;;;;;10.17;73.77;97846.22;5045912;28;20586;-67
2022/05/01 07:15:12;;;;;;;18.00;12.52;;;;;;;10.09;73.99;97853.63;5047136;28;20637;-67
2022/05/01 07:17:39;;;;;;;19.48;12.65;;;;;;;9.62;76.14;97840.94;5046345;28;20044;-66
2022/05/01 07:20:07;;;;;;;18.55;12.40;;;;;;;9.58;76.00;97847.88;5044813;28;20435;-66
2022/05/01 07:22:33;;;;;;;19.13;12.32;;;;;;;9.98;74.59;97841.75;5045903;28;20048;-66
2022/05/01 07:25:00;;;;;;;20.48;12.63;;;;;;;10.10;74.02;97843.63;5048709;28;20047;-67
2022/05/01 07:27:26;;;;;;;18.55;12.00;;;;;;;10.27;72.09;97844.53;5039050;28;20051;-67
2022/05/01 07:29:53;;;;;;;16.15;11.13;;;;;;;10.21;73.33;97842.78;5043564;28;20053;-66
2022/05/01 07:32:24;;;;;;;19.07;12.23;;;;;;;10.02;73.56;97844.78;5037930;28;20582;-67
2022/05/01 07:34:51;;;;;;;17.58;11.43;;;;;;;9.96;72.87;97840.34;5046776;28;20587;-66
2022/05/01 07:37:20;;;;;;;17.35;11.02;;;;;;;10.18;71.50;97842.44;5040952;28;20044;-52
2022/05/01 07:39:47;;;;;;;15.25;10.35;;;;;;;10.01;70.99;97845.88;5040437;28;20047;-50
2022/05/01 07:42:14;;;;;;;15.05;10.75;;;;;;;10.13;72.35;97835.03;5042185;28;20192;-45
2022/05/01 07:44:40;;;;;;;18.23;11.65;;;;;;;10.28;71.37;97850.75;5044126;28;20053;-46
2022/05/01 07:47:07;;;;;;;14.77;10.80;;;;;;;10.31;71.69;97844.88;5042511;28;20091;-50
2022/05/01 07:49:34;;;;;;;17.27;10.82;;;;;;;10.60;71.06;97841.41;5043097;28;20037;-66
2022/05/01 07:52:00;;;;;;;16.58;10.93;;;;;;;10.76;69.86;97843.38;5045630;28;20056;-66
2022/05/01 07:54:27;;;;;;;15.98;10.88;;;;;;;10.99;69.17;97841.59;5058185;28;20122;-67
2022/05/01 07:56:53;;;;;;;17.73;11.10;;;;;;;11.03;69.12;97837.34;5054417;28;20060;-67
2022/05/01 07:59:20;;;;;;;17.27;10.32;;;;;;;11.30;68.19;97834.03;5042911;28;20044;-67
2022/05/01 08:01:47;;;;;;;15.70;10.95;;;;;;;11.35;68.17;97832.47;5044299;28;20036;-67
2022/05/01 08:04:29;;;;;;;16.20;11.25;;;;;;;10.44;69.71;97843.84;5044285;28;20044;-67
2022/05/01 08:07:02;;;;;;;15.20;10.68;;;;;;;10.82;67.83;97832.63;5057451;28;20056;-66
2022/05/01 08:09:30;;;;;;;17.55;10.95;;;;;;;10.83;67.62;97835.09;5050820;28;20056;-67
2022/05/01 08:11:58;;;;;;;16.52;11.40;;;;;;;11.16;67.27;97827.28;5054366;28;20040;-67
2022/05/01 08:14:24;;;;;;;17.90;12.05;;;;;;;11.14;67.21;97827.53;5043900;28;20052;-68
2022/05/01 08:16:51;;;;;;;14.70;10.18;;;;;;;11.51;65.47;97828.97;5058936;28;20086;-67
2022/05/01 08:22:07;;;;;;;13.63;9.68;;;;;;;11.35;66.75;97824.34;5032039;28;20037;-67
2022/05/01 08:24:34;;;;;;;15.75;10.32;;;;;;;11.48;65.73;97837.56;5043991;28;20079;-67
2022/05/01 08:27:05;;;;;;;13.73;10.05;;;;;;;11.90;64.85;97838.22;5041763;28;20045;-67
2022/05/01 08:29:39;;;;;;;13.52;9.63;;;;;;;11.78;65.03;97833.69;5040448;28;20114;-67
2022/05/01 08:32:06;;;;;;;15.75;10.38;;;;;;;11.51;66.68;97834.38;5042840;28;20037;-67
2022/05/01 08:34:33;;;;;;;15.75;10.63;;;;;;;11.20;67.11;97836.56;5047798;28;20136;-67
2022/05/01 08:37:00;;;;;;;14.30;9.05;;;;;;;11.74;65.29;97840.69;5049565;28;20040;-67
2022/05/01 08:39:26;;;;;;;14.35;8.40;;;;;;;12.29;63.00;97840.94;5042412;28;20045;-67
2022/05/01 08:41:53;;;;;;;14.38;9.02;;;;;;;12.60;60.48;97840.50;5038292;28;20044;-68
2022/05/01 08:44:34;;;;;;;15.18;9.80;;;;;;;12.52;61.38;97839.03;5041482;28;20053;-67
2022/05/01 08:47:01;;;;;;;;;;;;;;;12.41;61.41;97845.41;5039463;28;20041;-68
2022/05/01 08:49:31;;;;;;;13.88;8.90;;;;;;;12.28;62.56;97827.63;5039485;28;19925;-68
2022/05/01 08:52:00;;;;;;;12.00;8.63;;;;;;;12.27;62.03;97834.13;5040519;28;20424;-68
2022/05/01 08:54:28;;;;;;;12.93;9.18;;;;;;;12.58;62.62;97835.34;5039211;28;20045;-68
2022/05/01 08:56:56;;;;;;;12.50;9.05;;;;;;;12.69;61.72;97830.00;5038897;28;20047;-67
2022/05/01 08:59:23;;;;;;;14.40;8.85;;;;;;;12.18;63.55;97836.44;5040964;28;20051;-68
2022/05/01 09:01:52;;;;;;;14.43;9.32;;;;;;;11.96;63.07;97835.31;5042484;28;20098;-68
2022/05/01 09:04:19;;;;;;;12.55;8.75;;;;;;;12.28;62.17;97828.44;5039878;28;20045;-68
2022/05/01 09:06:46;;;;;;;12.55;8.57;;;;;;;12.48;61.50;97830.59;5042857;28;20505;-68
2022/05/01 09:09:21;;;;;;;15.32;9.27;;;;;;;12.41;62.96;97831.84;5044185;28;20056;-68
2022/05/01 09:14:35;;;;;;;14.90;9.73;;;;;;;12.93;62.11;97824.28;5042293;28;20041;-68
2022/05/01 09:17:12;;;;;;;14.68;9.55;;;;;;;12.96;61.01;97832.75;5044148;28;20086;-67
2022/05/01 09:19:42;;;;;;;17.05;9.75;;;;;;;12.97;61.85;97823.50;5054345;28;20091;-68
2022/05/01 09:22:11;;;;;;;15.02;10.15;;;;;;;12.84;61.85;97826.63;5037979;28;20687;-68
2022/05/01 09:24:38;;;;;;;12.38;8.60;;;;;;;13.11;61.69;97825.81;5040222;28;20118;-68
2022/05/01 09:27:05;;;;;;;15.68;9.77;;;;;;;12.80;61.11;97831.78;5042262;28;20860;-68
2022/05/01 09:29:34;;;;;;;13.07;9.02;;;;;;;12.53;62.52;97832.53;5041857;28;20055;-67
2022/05/01 09:32:03;;;;;;;13.90;9.65;;;;;;;12.73;62.44;97834.69;5045661;28;20041;-68
2022/05/01 09:34:32;;;;;;;14.32;9.00;;;;;;;12.92;60.57;97831.63;5036701;28;20514;-68
2022/05/01 09:37:00;;;;;;;14.88;9.23;;;;;;;12.80;59.07;97831.78;5046963;28;20123;-68
2022/05/01 09:39:29;;;;;;;16.67;10.57;;;;;;;12.12;62.98;97837.47;5044015;28;20535;-68
2022/05/01 09:42:16;;;;;;;16.80;10.48;;;;;;;11.67;64.93;97831.88;5047465;28;20045;-67
2022/05/01 09:44:43;;;;;;;14.55;10.02;;;;;;;12.01;63.94;97833.75;5041943;28;20206;-67
2022/05/01 09:47:11;;;;;;;15.18;10.23;;;;;;;11.77;65.16;97831.22;5041866;28;20048;-67
2022/05/01 09:49:51;;;;;;;15.13;10.13;;;;;;;11.87;65.28;97830.56;5045296;28;20454;-67
2022/05/01 09:52:19;;;;;;;16.65;10.30;;;;;;;11.57;66.54;97832.53;5042490;28;20049;-68
2022/05/01 09:55:03;;;;;;;15.93;10.15;;;;;;;11.44;65.93;97836.44;5043683;28;20570;-67
2022/05/01 09:57:29;;;;;;;13.98;9.43;;;;;;;11.90;65.15;97838.22;5048649;28;20048;-67
2022/05/01 09:59:56;;;;;;;15.13;9.80;;;;;;;12.13;64.72;97837.22;5046714;28;20757;-71
2022/05/01 10:02:29;;;;;;;14.77;8.95;;;;;;;11.75;64.73;97833.38;5044163;28;20044;-70
2022/05/01 10:05:02;;;;;;;15.13;9.73;;;;;;;11.95;64.46;97828.22;5050146;28;20044;-70
2022/05/01 10:07:39;;;;;;;15.70;9.70;;;;;;;12.86;60.73;97830.72;5060268;28;20131;-68
2022/05/01 10:10:10;;;;;;;15.05;10.02;;;;;;;13.20;59.93;97829.69;5041877;28;20048;-69
2022/05/01 10:12:44;;;;;;;17.13;8.73;;;;;;;13.44;57.88;97817.66;5059684;28;20094;-65
2022/05/01 10:15:10;;;;;;;11.95;7.72;;;;;;;13.94;56.12;97820.22;5041507;28;20808;-65
2022/05/01 10:17:38;;;;;;;13.80;8.95;;;;;;;14.01;54.78;97818.09;5039506;28;20098;-66
2022/05/01 10:20:05;;;;;;;13.43;8.18;;;;;;;13.58;57.11;97812.63;5043816;28;20542;-66
2022/05/01 10:22:34;;;;;;;13.10;7.65;;;;;;;13.35;56.00;97814.59;5043359;28;20045;-66
2022/05/01 10:25:03;;;;;;;11.13;7.80;;;;;;;13.54;57.05;97809.63;5051117;28;20053;-69
2022/05/01 10:27:49;;;;;;;11.73;7.13;;;;;;;13.99;55.22;97809.34;5038933;28;20049;-66
2022/05/01 10:34:01;;;;;;;10.98;6.93;;;;;;;14.15;54.47;97812.97;5045746;28;20060;-70
2022/05/01 10:37:00;;;;;;;10.43;7.28;;;;;;;14.41;53.36;97805.75;4999505;28;20049;-65
2022/05/01 10:39:34;;;;;;;9.98;6.63;;;;;;;14.08;53.32;97813.22;5001655;28;20050;-70
2022/05/01 10:42:01;;;;;;;10.70;6.63;;;;;;;13.80;53.13;97804.34;5027289;28;20068;-71
2022/05/01 10:44:33;;;;;;;11.80;6.85;;;;;;;14.22;51.86;97807.31;5045127;28;20140;-72
2022/05/01 10:47:13;;;;;;;12.50;7.53;;;;;;;14.50;52.77;97797.91;5042343;28;20053;-71
2022/05/01 10:49:42;;;;;;;12.02;7.78;;;;;;;14.19;53.34;97792.31;5044749;28;20059;-72
2022/05/01 10:52:28;;;;;;;12.27;6.95;;;;;;;13.86;54.52;97795.13;5043872;28;20056;-72
2022/05/01 10:55:00;;;;;;;10.43;7.05;;;;;;;13.76;54.71;97790.47;5034677;28;20465;-71
2022/05/01 10:57:27;;;;;;;10.82;7.47;;;;;;;13.72;54.71;97794.78;5046024;28;20052;-72
2022/05/01 11:00:05;;;;;;;14.30;9.00;;;;;;;14.06;53.49;97793.63;5053473;28;20503;-71
2022/05/01 11:02:42;;;;;;;12.50;8.65;;;;;;;13.16;55.82;97789.69;5047035;28;20041;-71
2022/05/01 11:05:11;;;;;;;12.68;8.30;;;;;;;13.24;55.42;97787.31;5044284;28;20044;-71
2022/05/01 11:07:39;;;;;;;12.50;7.30;;;;;;;13.32;55.21;97785.22;5047126;28;20127;-71
2022/05/01 11:10:09;;;;;;;11.77;7.43;;;;;;;13.70;52.87;97785.22;5047192;28;20045;-71
2022/05/01 11:12:37;;;;;;;11.93;7.25;;;;;;;13.95;52.04;97776.41;5047279;28;20463;-71
2022/05/01 11:15:08;;;;;;;12.63;7.03;;;;;;;14.28;51.64;97779.84;5046763;28;20045;-70
2022/05/01 11:17:42;;;;;;;11.50;7.43;;;;;;;13.69;52.60;97773.53;5045762;28;20120;-70
2022/05/01 11:20:25;;;;;;;12.18;7.70;;;;;;;14.34;52.77;97777.94;5046603;28;20048;-71
2022/05/01 11:22:51;;;;;;;13.00;7.72;;;;;;;14.54;52.10;97770.91;5046296;28;20051;-72
2022/05/01 11:25:31;;;;;;;10.90;7.28;;;;;;;15.00;49.77;97783.06;5047053;28;20480;-71
2022/05/01 11:27:59;;;;;;;11.57;7.70;;;;;;;14.99;50.12;97775.94;5049012;28;20470;-70
2022/05/01 11:30:29;;;;;;;13.38;7.75;;;;;;;14.95;48.43;97773.78;5044328;28;20045;-72
2022/05/01 11:33:03;;;;;;;12.18;7.82;;;;;;;13.91;52.13;97776.13;5049390;28;20032;-71
2022/05/01 11:35:55;;;;;;;14.25;7.78;;;;;;;14.03;53.06;97772.34;5051603;28;20041;-71
2022/05/01 11:38:23;;;;;;;11.23;7.53;;;;;;;14.54;50.23;97774.47;5035624;28;20059;-71
2022/05/01 11:40:59;;;;;;;12.40;7.85;;;;;;;14.50;51.34;97776.09;5051896;28;20044;-72
2022/05/01 11:43:28;;;;;;;13.40;7.70;;;;;;;14.51;50.39;97769.56;5044209;28;20092;-72
2022/05/01 11:46:01;;;;;;;9.82;6.68;;;;;;;14.52;50.95;97767.66;5044830;28;20500;-71
2022/05/01 11:48:28;;;;;;;11.05;7.15;;;;;;;14.85;48.98;97765.56;5045631;28;20048;-73
2022/05/01 11:50:58;;;;;;;12.27;7.57;;;;;;;14.25;50.83;97764.03;5045886;28;20045;-72
2022/05/01 11:53:28;;;;;;;10.80;7.03;;;;;;;14.62;50.88;97769.56;5046466;28;20041;-73